Accueil
METAR-TAF:

METAR-TAF

Aéroports :

Aéroport de La Grande-4

La Grande-4, Québec, Canada

latitude: 53-45N, longitude: 073-40W, altitude: 306 m

Observation

Le bulletin a été fait il y a 20 minutes, à 03:00 UTC
Vent 3 kt de nord-est
Température 6°C
Humidité 87%
Pression 1017 hPa
Visibilité: 14.5 km
Ciel clair

METAR: CYAH 190300Z AUTO 05003KT 9SM CLR 06/04 A3002 RMK SLP179

Heure: 23:20 (03:20 UTC)

Prévision

Le bulletin a été fait il y a 9 heures et 42 minutes, à 17:38 UTC
Prévision valable du 18 à 18 UTC au 18 à 21 UTC
Vent 3 kt de direction variable
Visibilité: 10 km
Ciel clair

TAF: CYAH 181738Z 1818/1821 VRB03KT P6SM SKC RMK FCST BASED ON AUTO OBS. NXT FCST WILL BE ISSUED AT 191045Z

Observations et prévisions météorologiques de plus de 4000 aéroports (messages METAR et TAF).

Les stations disponibles sont représentées par des disques jaunes et rouges sur la carte.

Passer la souris dessus pour voir le nom de la station.

Cliquer dessus pour voir les observations et prévisions météorologiques.

Pour changer de carte: cliquez sur les boutons verts avec une croix noire pour zoomer, sur le bouton vert avec un tiret pour effectuer un zoom arrière, ou sur les flèches vertes pour les cartes adjacentes.


METAR-TAF: